createdAt,value
2022-11-05T00:00:37.257Z,100.00
2022-11-05T00:03:23.115Z,100.00
2022-11-05T00:06:10.161Z,100.00
2022-11-05T00:08:55.453Z,100.00
2022-11-05T00:11:45.117Z,100.00
2022-11-05T00:14:30.561Z,100.00
2022-11-05T00:16:57.802Z,100.00
2022-11-05T00:19:25.213Z,100.00
2022-11-05T00:22:10.685Z,100.00
2022-11-05T00:24:56.273Z,100.00
2022-11-05T00:27:23.210Z,100.00
2022-11-05T00:29:50.260Z,100.00
2022-11-05T00:32:17.307Z,100.00
2022-11-05T00:34:44.152Z,100.00
2022-11-05T00:37:10.893Z,100.00
2022-11-05T00:39:37.735Z,100.00
2022-11-05T00:42:23.169Z,100.00
2022-11-05T00:45:02.285Z,100.00
2022-11-05T00:47:48.659Z,100.00
2022-11-05T00:50:15.648Z,100.00
2022-11-05T00:52:57.901Z,100.00
2022-11-05T00:55:38.613Z,100.00
2022-11-05T00:58:18.366Z,100.00
2022-11-05T01:00:52.080Z,100.00
2022-11-05T01:03:20.909Z,100.00
2022-11-05T01:05:52.386Z,100.00
2022-11-05T01:08:20.601Z,100.00
2022-11-05T01:10:49.614Z,100.00
2022-11-05T01:13:19.533Z,100.00
2022-11-05T01:15:48.356Z,100.00
2022-11-05T01:18:15.133Z,100.00
2022-11-05T01:20:41.940Z,100.00
2022-11-05T01:23:13.311Z,100.00
2022-11-05T01:25:44.427Z,100.00
2022-11-05T01:28:11.258Z,100.00
2022-11-05T01:30:38.414Z,100.00
2022-11-05T01:33:05.373Z,100.00
2022-11-05T01:35:32.332Z,100.00
2022-11-05T01:37:59.359Z,100.00
2022-11-05T01:40:26.395Z,100.00
2022-11-05T01:42:53.238Z,100.00
2022-11-05T01:45:26.164Z,100.00
2022-11-05T01:48:09.241Z,100.00
2022-11-05T01:50:39.585Z,100.00
2022-11-05T01:53:20.664Z,100.00
2022-11-05T01:56:26.041Z,100.00
2022-11-05T01:59:12.150Z,100.00
2022-11-05T02:01:39.286Z,100.00
2022-11-05T02:04:10.206Z,100.00
2022-11-05T02:06:46.225Z,100.00
2022-11-05T02:09:21.067Z,100.00
2022-11-05T02:11:48.739Z,100.00
2022-11-05T02:14:15.571Z,100.00
2022-11-05T02:16:50.264Z,100.00
2022-11-05T02:19:51.031Z,100.00
2022-11-05T02:22:53.107Z,100.00
2022-11-05T02:25:29.177Z,100.00
2022-11-05T02:28:14.783Z,100.00
2022-11-05T02:31:20.013Z,100.00
2022-11-05T02:34:12.157Z,100.00
2022-11-05T02:36:50.227Z,100.00
2022-11-05T02:39:54.422Z,100.00
2022-11-05T02:42:59.820Z,100.00
2022-11-05T02:45:41.731Z,100.00
2022-11-05T02:48:23.538Z,100.00
2022-11-05T02:51:04.287Z,100.00
2022-11-05T02:53:41.449Z,100.00
2022-11-05T02:56:21.504Z,100.00
2022-11-05T02:58:48.333Z,100.00
2022-11-05T03:01:16.130Z,100.00
2022-11-05T03:03:48.928Z,100.00
2022-11-05T03:06:34.496Z,100.00
2022-11-05T03:09:14.834Z,100.00
2022-11-05T03:12:09.658Z,100.00
2022-11-05T03:14:51.443Z,100.00
2022-11-05T03:17:30.252Z,100.00
2022-11-05T03:20:29.675Z,100.00
2022-11-05T03:23:00.870Z,100.00
2022-11-05T03:25:30.292Z,100.00
2022-11-05T03:28:00.446Z,100.00
2022-11-05T03:30:27.292Z,100.00
2022-11-05T03:33:07.656Z,100.00
2022-11-05T03:35:37.442Z,100.00
2022-11-05T03:38:10.561Z,100.00
2022-11-05T03:40:37.617Z,100.00
2022-11-05T03:43:09.743Z,100.00
2022-11-05T03:46:04.948Z,100.00
2022-11-05T03:48:33.802Z,100.00
2022-11-05T03:51:08.598Z,100.00
2022-11-05T03:53:44.226Z,100.00
2022-11-05T03:56:18.561Z,100.00
2022-11-05T03:58:46.223Z,100.00
2022-11-05T04:01:13.031Z,100.00
2022-11-05T04:03:40.609Z,100.00
2022-11-05T04:06:27.036Z,100.00
2022-11-05T04:09:13.209Z,100.00
2022-11-05T04:11:58.463Z,100.00
2022-11-05T04:14:26.360Z,100.00
2022-11-05T04:17:11.608Z,100.00
2022-11-05T04:19:59.195Z,100.00
2022-11-05T04:22:45.775Z,100.00
2022-11-05T04:25:13.595Z,100.00
2022-11-05T04:27:40.649Z,100.00
2022-11-05T04:30:25.001Z,100.00
2022-11-05T04:33:11.134Z,100.00
2022-11-05T04:35:43.417Z,100.00
2022-11-05T04:38:12.684Z,100.00
2022-11-05T04:40:39.508Z,100.00
2022-11-05T04:43:10.631Z,100.00
2022-11-05T04:45:42.329Z,100.00
2022-11-05T04:48:09.212Z,100.00
2022-11-05T04:50:36.058Z,100.00
2022-11-05T04:53:03.051Z,100.00
2022-11-05T04:55:29.811Z,100.00
2022-11-05T04:57:56.591Z,100.00
2022-11-05T05:00:23.982Z,100.00
2022-11-05T05:02:51.051Z,100.00
2022-11-05T05:05:17.814Z,100.00
2022-11-05T05:07:44.526Z,100.00
2022-11-05T05:10:11.730Z,100.00
2022-11-05T05:12:38.463Z,100.00
2022-11-05T05:15:05.947Z,100.00
2022-11-05T05:17:32.917Z,100.00
2022-11-05T05:20:18.062Z,100.00
2022-11-05T05:22:51.577Z,100.00
2022-11-05T05:25:18.907Z,100.00
2022-11-05T05:27:45.604Z,100.00
2022-11-05T05:30:12.639Z,100.00
2022-11-05T05:32:39.390Z,100.00
2022-11-05T05:35:06.407Z,100.00
2022-11-05T05:37:33.246Z,100.00
2022-11-05T05:39:59.955Z,100.00
2022-11-05T05:42:27.431Z,100.00
2022-11-05T05:44:54.353Z,100.00
2022-11-05T05:47:23.840Z,100.00
2022-11-05T05:49:50.654Z,100.00
2022-11-05T05:52:17.598Z,100.00
2022-11-05T05:54:45.131Z,100.00
2022-11-05T05:57:11.788Z,100.00
2022-11-05T05:59:38.504Z,100.00
2022-11-05T06:02:05.311Z,100.00
2022-11-05T06:04:32.851Z,100.00
2022-11-05T06:06:59.766Z,100.00
2022-11-05T06:09:26.574Z,100.00
2022-11-05T06:11:53.246Z,100.00
2022-11-05T06:14:19.934Z,100.00
2022-11-05T06:16:46.699Z,100.00
2022-11-05T06:19:13.352Z,100.00
2022-11-05T06:21:40.040Z,100.00
2022-11-05T06:24:07.562Z,100.00
2022-11-05T06:26:34.356Z,100.00
2022-11-05T06:29:01.150Z,100.00
2022-11-05T06:31:28.916Z,100.00
2022-11-05T06:33:55.647Z,100.00
2022-11-05T06:36:22.480Z,100.00
2022-11-05T06:38:49.462Z,100.00
2022-11-05T06:41:16.195Z,100.00
2022-11-05T06:43:43.588Z,100.00
2022-11-05T06:46:11.247Z,100.00
2022-11-05T06:48:38.850Z,100.00
2022-11-05T06:51:06.585Z,100.00
2022-11-05T06:53:33.447Z,100.00
2022-11-05T06:56:07.472Z,100.00
2022-11-05T06:58:34.573Z,100.00
2022-11-05T07:01:09.381Z,100.00
2022-11-05T07:03:38.343Z,100.00
2022-11-05T07:06:06.743Z,100.00
2022-11-05T07:08:34.597Z,100.00
2022-11-05T07:11:03.515Z,100.00
2022-11-05T07:13:30.309Z,100.00
2022-11-05T07:15:57.467Z,100.00
2022-11-05T07:18:24.745Z,100.00
2022-11-05T07:20:51.519Z,100.00
2022-11-05T07:23:18.256Z,100.00
2022-11-05T07:25:45.919Z,100.00
2022-11-05T07:28:24.778Z,100.00
2022-11-05T07:30:59.412Z,100.00
2022-11-05T07:33:26.257Z,100.00
2022-11-05T07:35:55.565Z,100.00
2022-11-05T07:38:31.518Z,100.00
2022-11-05T07:41:01.529Z,100.00
2022-11-05T07:43:28.238Z,100.00
2022-11-05T07:45:58.005Z,100.00
2022-11-05T07:48:24.778Z,100.00
2022-11-05T07:50:52.908Z,93.38
2022-11-05T07:53:20.772Z,90.31
2022-11-05T07:55:47.588Z,93.25
2022-11-05T07:58:15.079Z,82.62
2022-11-05T08:00:41.991Z,81.16
2022-11-05T08:03:14.066Z,78.72
2022-11-05T08:05:46.211Z,76.22
2022-11-05T08:08:15.238Z,76.30
2022-11-05T08:10:42.234Z,79.30
2022-11-05T08:13:09.892Z,79.86
2022-11-05T08:15:37.557Z,76.42
2022-11-05T08:18:09.054Z,83.94
2022-11-05T08:20:38.237Z,83.21
2022-11-05T08:23:06.424Z,94.39
2022-11-05T08:25:34.197Z,100.00
2022-11-05T08:28:10.620Z,100.00
2022-11-05T08:30:37.923Z,100.00
2022-11-05T08:33:07.706Z,100.00
2022-11-05T08:35:55.837Z,100.00
2022-11-05T08:38:31.577Z,100.00
2022-11-05T08:40:58.767Z,100.00
2022-11-05T08:43:26.288Z,100.00
2022-11-05T08:45:54.373Z,100.00
2022-11-05T08:48:21.347Z,100.00
2022-11-05T08:50:49.176Z,100.00
2022-11-05T08:53:16.416Z,100.00
2022-11-05T08:55:44.237Z,100.00
2022-11-05T08:58:17.903Z,100.00
2022-11-05T09:00:47.454Z,100.00
2022-11-05T09:03:18.147Z,100.00
2022-11-05T09:05:45.318Z,100.00
2022-11-05T09:08:15.905Z,100.00
2022-11-05T09:10:44.869Z,100.00
2022-11-05T09:13:18.280Z,100.00
2022-11-05T09:15:47.652Z,100.00
2022-11-05T09:18:14.848Z,100.00
2022-11-05T09:20:42.779Z,100.00
2022-11-05T09:23:11.182Z,100.00
2022-11-05T09:25:38.858Z,100.00
2022-11-05T09:28:16.203Z,100.00
2022-11-05T09:30:48.192Z,100.00
2022-11-05T09:33:16.409Z,100.00
2022-11-05T09:35:43.289Z,100.00
2022-11-05T09:38:12.170Z,100.00
2022-11-05T09:40:51.248Z,100.00
2022-11-05T09:43:20.953Z,100.00
2022-11-05T09:45:53.362Z,100.00
2022-11-05T09:48:23.804Z,100.00
2022-11-05T09:50:51.242Z,100.00
2022-11-05T09:53:20.056Z,100.00
2022-11-05T09:56:06.675Z,100.00
2022-11-05T09:58:44.284Z,100.00
2022-11-05T10:01:22.048Z,100.00
2022-11-05T10:03:52.064Z,100.00
2022-11-05T10:06:25.021Z,100.00
2022-11-05T10:09:08.349Z,100.00
2022-11-05T10:11:41.994Z,100.00
2022-11-05T10:14:44.953Z,100.00
2022-11-05T10:17:24.689Z,100.00
2022-11-05T10:20:00.098Z,100.00
2022-11-05T10:22:26.954Z,100.00
2022-11-05T10:24:55.390Z,100.00
2022-11-05T10:27:29.903Z,100.00
2022-11-05T10:29:57.623Z,100.00
2022-11-05T10:32:35.153Z,100.00
2022-11-05T10:35:04.787Z,100.00
2022-11-05T10:37:40.525Z,100.00
2022-11-05T10:40:32.314Z,100.00
2022-11-05T10:43:44.389Z,100.00
2022-11-05T10:46:35.887Z,100.00
2022-11-05T10:49:40.809Z,100.00
2022-11-05T10:52:26.152Z,100.00
2022-11-05T10:54:56.233Z,100.00
2022-11-05T10:57:35.065Z,100.00
2022-11-05T11:00:14.988Z,100.00
2022-11-05T11:02:48.092Z,100.00
2022-11-05T11:05:32.744Z,100.00
2022-11-05T11:08:11.739Z,100.00
2022-11-05T11:10:56.113Z,100.00
2022-11-05T11:13:27.386Z,100.00
2022-11-05T11:15:56.814Z,100.00
2022-11-05T11:18:40.097Z,100.00
2022-11-05T11:21:17.866Z,100.00
2022-11-05T11:23:59.559Z,100.00
2022-11-05T11:26:32.799Z,100.00
2022-11-05T11:29:01.984Z,100.00
2022-11-05T11:31:31.181Z,100.00
2022-11-05T11:34:10.360Z,100.00
2022-11-05T11:36:49.275Z,100.00
2022-11-05T11:39:21.092Z,100.00
2022-11-05T11:42:09.977Z,100.00
2022-11-05T11:44:48.599Z,100.00
2022-11-05T11:47:19.424Z,100.00
2022-11-05T11:49:57.150Z,100.00
2022-11-05T11:52:35.068Z,100.00
2022-11-05T11:55:16.495Z,100.00
2022-11-05T11:57:49.397Z,100.00
2022-11-05T12:00:17.710Z,100.00
2022-11-05T12:03:20.035Z,100.00
2022-11-05T12:06:24.793Z,100.00
2022-11-05T12:09:06.437Z,100.00
2022-11-05T12:11:59.570Z,100.00
2022-11-05T12:15:00.970Z,100.00
2022-11-05T12:17:49.635Z,100.00
2022-11-05T12:20:26.714Z,100.00
2022-11-05T12:22:59.620Z,100.00
2022-11-05T12:25:45.328Z,100.00
2022-11-05T12:28:30.778Z,100.00
2022-11-05T12:31:19.653Z,100.00
2022-11-05T12:33:59.745Z,100.00
2022-11-05T12:36:43.054Z,100.00
2022-11-05T12:39:40.562Z,100.00
2022-11-05T12:42:31.889Z,100.00
2022-11-05T12:45:02.382Z,100.00
2022-11-05T12:47:46.986Z,100.00
2022-11-05T12:50:23.647Z,100.00
2022-11-05T12:53:31.989Z,100.00
2022-11-05T12:56:01.116Z,100.00
2022-11-05T12:58:37.571Z,100.00
2022-11-05T13:01:13.168Z,100.00
2022-11-05T13:04:00.159Z,100.00
2022-11-05T13:06:42.121Z,100.00
2022-11-05T13:09:23.505Z,100.00
2022-11-05T13:12:21.861Z,100.00
2022-11-05T13:15:01.378Z,100.00
2022-11-05T13:17:37.042Z,100.00
2022-11-05T13:20:20.845Z,100.00
2022-11-05T13:23:13.583Z,100.00
2022-11-05T13:25:48.134Z,100.00
2022-11-05T13:28:28.493Z,100.00
2022-11-05T13:30:58.751Z,100.00
2022-11-05T13:33:42.445Z,100.00
2022-11-05T13:36:41.765Z,100.00
2022-11-05T13:39:30.088Z,100.00
2022-11-05T13:42:22.206Z,100.00
2022-11-05T13:45:11.319Z,100.00
2022-11-05T13:48:03.028Z,100.00
2022-11-05T13:51:00.896Z,100.00
2022-11-05T13:53:58.681Z,100.00
2022-11-05T13:57:06.815Z,100.00
2022-11-05T13:59:45.921Z,100.00
2022-11-05T14:02:38.927Z,100.00
2022-11-05T14:05:08.560Z,100.00
2022-11-05T14:07:44.961Z,100.00
2022-11-05T14:10:39.227Z,100.00
2022-11-05T14:13:35.210Z,100.00
2022-11-05T14:16:27.843Z,100.00
2022-11-05T14:19:22.823Z,100.00
2022-11-05T14:21:58.128Z,100.00
2022-11-05T14:24:30.947Z,100.00
2022-11-05T14:27:00.999Z,100.00
2022-11-05T14:29:44.985Z,100.00
2022-11-05T14:32:28.874Z,100.00
2022-11-05T14:35:05.172Z,100.00
2022-11-05T14:37:56.254Z,100.00
2022-11-05T14:40:40.417Z,100.00
2022-11-05T14:43:28.145Z,100.00
2022-11-05T14:46:08.942Z,100.00
2022-11-05T14:48:43.469Z,100.00
2022-11-05T14:51:29.448Z,100.00
2022-11-05T14:54:12.345Z,100.00
2022-11-05T14:56:57.304Z,100.00
2022-11-05T14:59:24.504Z,100.00
2022-11-05T15:02:03.883Z,100.00
2022-11-05T15:04:32.154Z,100.00
2022-11-05T15:07:13.173Z,100.00
2022-11-05T15:09:54.427Z,100.00
2022-11-05T15:12:59.129Z,100.00
2022-11-05T15:15:28.793Z,100.00
2022-11-05T15:18:03.886Z,100.00
2022-11-05T15:20:46.806Z,100.00
2022-11-05T15:23:19.726Z,100.00
2022-11-05T15:26:11.935Z,100.00
2022-11-05T15:28:46.555Z,100.00
2022-11-05T15:31:15.650Z,100.00
2022-11-05T15:33:45.680Z,100.00
2022-11-05T15:36:30.776Z,100.00
2022-11-05T15:41:47.018Z,100.00
2022-11-05T15:44:27.665Z,100.00
2022-11-05T15:47:09.123Z,100.00
2022-11-05T15:49:39.749Z,100.00
2022-11-05T15:52:15.284Z,100.00
2022-11-05T15:54:43.288Z,100.00
2022-11-05T15:57:26.161Z,100.00
2022-11-05T15:59:53.548Z,100.00
2022-11-05T16:02:36.649Z,100.00
2022-11-05T16:05:13.237Z,100.00
2022-11-05T16:07:45.221Z,100.00
2022-11-05T16:10:21.763Z,100.00
2022-11-05T16:12:48.588Z,100.00
2022-11-05T16:15:15.177Z,100.00
2022-11-05T16:17:46.998Z,100.00
2022-11-05T16:20:34.784Z,100.00
2022-11-05T16:23:02.744Z,100.00
2022-11-05T16:25:43.268Z,100.00
2022-11-05T16:28:39.030Z,100.00
2022-11-05T16:31:06.228Z,100.00
2022-11-05T16:33:45.976Z,100.00
2022-11-05T16:36:15.453Z,100.00
2022-11-05T16:38:45.485Z,100.00
2022-11-05T16:41:19.745Z,100.00
2022-11-05T16:43:56.730Z,100.00
2022-11-05T16:46:25.675Z,100.00
2022-11-05T16:48:52.438Z,100.00
2022-11-05T16:51:27.427Z,100.00
2022-11-05T16:54:09.912Z,100.00
2022-11-05T16:56:40.326Z,100.00
2022-11-05T16:59:09.921Z,100.00
2022-11-05T17:01:37.485Z,100.00
2022-11-05T17:04:10.403Z,100.00
2022-11-05T17:06:37.768Z,100.00
2022-11-05T17:09:04.585Z,100.00
2022-11-05T17:11:31.676Z,100.00
2022-11-05T17:13:58.664Z,100.00
2022-11-05T17:16:26.995Z,100.00
2022-11-05T17:18:53.802Z,100.00
2022-11-05T17:21:20.673Z,100.00
2022-11-05T17:23:47.595Z,100.00
2022-11-05T17:26:14.457Z,100.00
2022-11-05T17:28:44.057Z,100.00
2022-11-05T17:31:13.275Z,100.00
2022-11-05T17:33:40.391Z,100.00
2022-11-05T17:36:09.566Z,100.00
2022-11-05T17:38:36.357Z,100.00
2022-11-05T17:41:15.052Z,100.00
2022-11-05T17:43:45.890Z,100.00
2022-11-05T17:46:26.520Z,100.00
2022-11-05T17:48:53.367Z,100.00
2022-11-05T17:51:30.489Z,100.00
2022-11-05T17:54:01.099Z,100.00
2022-11-05T17:56:35.086Z,100.00
2022-11-05T17:59:09.277Z,100.00
2022-11-05T18:01:54.484Z,100.00
2022-11-05T18:04:31.068Z,100.00
2022-11-05T18:06:58.213Z,100.00
2022-11-05T18:09:28.301Z,100.00
2022-11-05T18:11:56.830Z,100.00
2022-11-05T18:14:25.210Z,100.00
2022-11-05T18:19:46.094Z,100.00
2022-11-05T18:22:18.541Z,100.00
2022-11-05T18:28:05.720Z,100.00
2022-11-05T18:30:38.690Z,100.00
2022-11-05T18:33:06.065Z,100.00
2022-11-05T18:35:33.825Z,100.00
2022-11-05T18:38:01.094Z,100.00
2022-11-05T18:40:28.750Z,100.00
2022-11-05T18:42:56.143Z,100.00
2022-11-05T18:45:38.724Z,100.00
2022-11-05T18:48:06.033Z,100.00
2022-11-05T18:53:17.065Z,100.00
2022-11-05T18:55:44.680Z,100.00
2022-11-05T18:58:12.094Z,100.00
2022-11-05T19:03:20.767Z,100.00
2022-11-05T19:05:47.600Z,100.00
2022-11-05T19:08:15.003Z,100.00
2022-11-05T19:10:42.157Z,100.00
2022-11-05T19:13:09.006Z,100.00
2022-11-05T19:15:35.729Z,100.00
2022-11-05T19:18:03.097Z,100.00
2022-11-05T19:20:35.085Z,100.00
2022-11-05T19:23:05.454Z,100.00
2022-11-05T19:25:32.378Z,100.00
2022-11-05T19:27:59.199Z,100.00
2022-11-05T19:30:26.114Z,100.00
2022-11-05T19:32:52.949Z,100.00
2022-11-05T19:35:20.035Z,100.00
2022-11-05T19:37:47.031Z,100.00
2022-11-05T19:40:13.845Z,100.00
2022-11-05T19:42:40.640Z,100.00
2022-11-05T19:45:30.336Z,100.00
2022-11-05T19:47:54.964Z,100.00
2022-11-05T19:50:21.830Z,100.00
2022-11-05T19:52:48.763Z,100.00
2022-11-05T19:55:15.551Z,100.00
2022-11-05T19:57:42.303Z,100.00
2022-11-05T20:00:09.558Z,100.00
2022-11-05T20:02:38.179Z,100.00
2022-11-05T20:05:05.725Z,100.00
2022-11-05T20:07:33.527Z,100.00
2022-11-05T20:10:00.238Z,100.00
2022-11-05T20:12:26.968Z,100.00
2022-11-05T20:14:53.746Z,100.00
2022-11-05T20:17:20.612Z,100.00
2022-11-05T20:19:47.455Z,100.00
2022-11-05T20:22:14.293Z,100.00
2022-11-05T20:24:41.028Z,100.00
2022-11-05T20:27:08.115Z,100.00
2022-11-05T20:29:35.917Z,100.00
2022-11-05T20:32:04.032Z,100.00
2022-11-05T20:34:31.777Z,100.00
2022-11-05T20:36:58.627Z,100.00
2022-11-05T20:39:25.487Z,100.00
2022-11-05T20:41:53.075Z,100.00
2022-11-05T20:44:19.978Z,100.00
2022-11-05T20:46:46.892Z,100.00
2022-11-05T20:49:13.710Z,100.00
2022-11-05T20:51:41.541Z,100.00
2022-11-05T20:54:09.721Z,100.00
2022-11-05T20:56:36.526Z,100.00
2022-11-05T20:59:05.450Z,100.00
2022-11-05T21:01:33.497Z,100.00
2022-11-05T21:04:00.534Z,100.00
2022-11-05T21:06:27.483Z,100.00
2022-11-05T21:08:54.626Z,100.00
2022-11-05T21:11:21.708Z,100.00
2022-11-05T21:13:48.924Z,100.00
2022-11-05T21:16:18.696Z,100.00
2022-11-05T21:18:46.422Z,100.00
2022-11-05T21:21:20.395Z,100.00
2022-11-05T21:23:48.637Z,100.00
2022-11-05T21:26:17.039Z,100.00
2022-11-05T21:28:46.763Z,100.00
2022-11-05T21:31:15.140Z,100.00
2022-11-05T21:33:42.394Z,100.00
2022-11-05T21:36:13.168Z,100.00
2022-11-05T21:38:41.814Z,100.00
2022-11-05T21:41:09.970Z,100.00
2022-11-05T21:43:38.661Z,100.00
2022-11-05T21:46:09.843Z,100.00
2022-11-05T21:48:38.286Z,100.00
2022-11-05T21:51:24.021Z,100.00
2022-11-05T21:54:09.380Z,100.00
2022-11-05T21:56:54.959Z,100.00
2022-11-05T21:59:42.297Z,100.00
2022-11-05T22:02:11.369Z,100.00
2022-11-05T22:04:41.624Z,100.00
2022-11-05T22:07:10.326Z,100.00
2022-11-05T22:09:37.551Z,100.00
2022-11-05T22:12:05.117Z,100.00
2022-11-05T22:14:32.501Z,100.00
2022-11-05T22:16:59.900Z,100.00
2022-11-05T22:19:26.744Z,100.00
2022-11-05T22:21:54.566Z,100.00
2022-11-05T23:36:45.477Z,100.00
2022-11-05T23:51:24.938Z,100.00
